Time;durP1;ratioP1;P1;durP2;ratioP2;P2;SDS_P1;SDS_P2;PMS_P1;PMS_P2;Temp;Humidity;BMP_temperature;BMP_pressure;BME280_temperature;BME280_humidity;BME280_pressure;Samples;Min_cycle;Max_cycle;Signal;HPM_P1;HPM_P2
2024/02/17 00:01:32;;;;;;;20.00;13.63;;;;;;;8.13;71.02;100582.34;5092219;28;20661;-60
2024/02/17 00:04:00;;;;;;;21.33;13.97;;;;;;;8.13;70.78;100584.91;5091651;28;20217;-62
2024/02/17 00:06:29;;;;;;;25.27;13.97;;;;;;;8.10;70.52;100582.31;5091458;28;20204;-64
2024/02/17 00:08:58;;;;;;;22.30;14.30;;;;;;;8.07;70.44;100580.59;5091657;28;20207;-61
2024/02/17 00:11:25;;;;;;;22.30;14.33;;;;;;;8.07;70.66;100577.19;5086903;28;20246;-62
2024/02/17 00:13:54;;;;;;;21.03;13.30;;;;;;;8.07;70.92;100579.75;5089914;28;20262;-59
2024/02/17 00:16:22;;;;;;;20.60;13.63;;;;;;;8.06;70.76;100578.88;5089527;28;20565;-61
2024/02/17 00:18:50;;;;;;;24.67;13.53;;;;;;;8.05;71.78;100584.84;5089613;28;20254;-61
2024/02/17 00:21:18;;;;;;;22.00;14.03;;;;;;;8.03;71.50;100584.00;5086202;28;20777;-63
2024/02/17 00:23:47;;;;;;;22.90;14.47;;;;;;;8.02;70.68;100572.00;5084192;28;20256;-60
2024/02/17 00:26:17;;;;;;;20.20;14.07;;;;;;;7.98;71.26;100580.53;5083300;28;20565;-62
2024/02/17 00:28:45;;;;;;;23.20;14.10;;;;;;;7.96;71.32;100577.09;5090610;28;20207;-65
2024/02/17 00:31:13;;;;;;;20.80;13.97;;;;;;;7.93;71.50;100561.69;5090906;28;20201;-61
2024/02/17 00:33:41;;;;;;;22.73;13.83;;;;;;;7.93;71.46;100569.38;5088693;28;20210;-63
2024/02/17 00:36:09;;;;;;;20.10;13.70;;;;;;;7.92;72.18;100572.81;5087154;28;20578;-60
2024/02/17 00:38:37;;;;;;;22.30;14.33;;;;;;;7.92;71.47;100575.38;5090687;28;20212;-61
2024/02/17 00:41:07;;;;;;;21.07;14.57;;;;;;;7.91;72.28;100569.34;5091258;28;20655;-66
2024/02/17 00:43:35;;;;;;;21.53;14.97;;;;;;;7.90;71.92;100566.78;5090302;28;20216;-62
2024/02/17 00:46:04;;;;;;;22.63;14.20;;;;;;;7.90;71.90;100567.63;5090350;28;20669;-60
2024/02/17 00:48:32;;;;;;;22.00;15.07;;;;;;;7.88;72.18;100569.34;5087451;28;20200;-60
2024/02/17 00:51:01;;;;;;;27.13;14.87;;;;;;;7.89;72.17;100572.78;5090504;28;20599;-60
2024/02/17 00:53:42;;;;;;;23.47;14.43;;;;;;;7.88;72.21;100568.47;5087640;28;20546;-65
2024/02/17 00:56:14;;;;;;;22.70;14.70;;;;;;;7.87;71.70;100566.75;5085077;28;20200;-61
2024/02/17 00:58:42;;;;;;;21.70;15.07;;;;;;;7.86;72.02;100572.75;5089621;28;20204;-64
2024/02/17 01:01:11;;;;;;;25.27;14.27;;;;;;;7.86;72.22;100565.03;5090982;28;20212;-61
2024/02/17 01:03:53;;;;;;;18.37;13.07;;;;;;;7.89;72.22;100573.63;5090639;28;20590;-62
2024/02/17 01:06:22;;;;;;;20.77;14.63;;;;;;;7.89;71.92;100568.50;5082207;28;20211;-61
2024/02/17 01:08:51;;;;;;;25.73;16.77;;;;;;;7.90;71.96;100571.91;5090623;28;20204;-60
2024/02/17 01:11:20;;;;;;;26.13;15.07;;;;;;;7.89;71.80;100568.50;5086712;28;20244;-62
2024/02/17 01:13:48;;;;;;;22.77;14.30;;;;;;;7.88;72.71;100556.53;5086894;28;20758;-61
2024/02/17 01:16:17;;;;;;;25.37;15.30;;;;;;;7.91;71.94;100563.38;5088415;28;20204;-63
2024/02/17 01:18:45;;;;;;;24.60;15.70;;;;;;;7.91;72.54;100553.09;5090745;28;20250;-61
2024/02/17 01:21:13;;;;;;;24.10;15.20;;;;;;;7.88;71.64;100563.34;5090880;28;20207;-60
2024/02/17 01:23:41;;;;;;;23.20;14.80;;;;;;;7.86;72.09;100565.91;5090725;28;20287;-61
2024/02/17 01:26:09;;;;;;;23.63;15.10;;;;;;;7.85;72.90;100563.34;5090133;28;20207;-64
2024/02/17 01:28:40;;;;;;;25.63;15.43;;;;;;;7.86;72.58;100549.66;5086976;28;20751;-62
2024/02/17 01:31:08;;;;;;;22.33;14.70;;;;;;;7.85;72.41;100555.63;5083626;28;20283;-60
2024/02/17 01:33:36;;;;;;;20.43;14.27;;;;;;;7.86;73.09;100555.63;5090641;28;20201;-61
2024/02/17 01:36:05;;;;;;;25.43;15.33;;;;;;;7.87;72.77;100543.66;5088612;28;20390;-61
2024/02/17 01:38:33;;;;;;;23.13;14.40;;;;;;;7.88;72.03;100558.19;5089009;28;20257;-61
2024/02/17 01:41:01;;;;;;;21.87;14.73;;;;;;;7.87;72.80;100541.97;5084171;28;20197;-61
2024/02/17 01:43:29;;;;;;;21.47;13.80;;;;;;;7.87;72.83;100548.78;5078476;28;20303;-61
2024/02/17 01:45:58;;;;;;;23.87;14.70;;;;;;;7.90;73.25;100541.13;5093280;28;20212;-62
2024/02/17 01:48:27;;;;;;;22.67;14.03;;;;;;;7.92;72.60;100535.16;5087557;28;20201;-61
2024/02/17 01:50:56;;;;;;;20.57;13.77;;;;;;;7.93;72.58;100534.31;5088411;28;20223;-61
2024/02/17 01:53:25;;;;;;;19.73;13.57;;;;;;;7.95;72.93;100539.44;5087291;28;20718;-61
2024/02/17 01:55:53;;;;;;;19.30;13.40;;;;;;;7.95;73.12;100534.31;5092978;28;20216;-60
2024/02/17 01:58:21;;;;;;;22.53;14.07;;;;;;;7.95;73.11;100535.19;5079540;28;20201;-62
2024/02/17 02:00:50;;;;;;;24.73;14.33;;;;;;;7.96;72.99;100536.06;5087243;28;20197;-61
2024/02/17 02:03:21;;;;;;;18.97;13.07;;;;;;;7.97;73.09;100532.63;5090023;28;20215;-61
2024/02/17 02:05:49;;;;;;;20.80;13.57;;;;;;;7.98;72.91;100529.19;5090047;28;20209;-63
2024/02/17 02:08:17;;;;;;;21.47;13.90;;;;;;;7.96;72.77;100531.78;5089237;28;20208;-63
2024/02/17 02:10:46;;;;;;;20.67;13.37;;;;;;;7.94;72.89;100536.03;5087253;28;20576;-61
2024/02/17 02:13:14;;;;;;;21.47;13.97;;;;;;;7.94;73.98;100527.47;5085357;28;20230;-61
2024/02/17 02:15:43;;;;;;;19.93;13.10;;;;;;;7.92;72.87;100529.19;5083722;28;20701;-61
2024/02/17 02:18:23;;;;;;;21.37;13.23;;;;;;;7.90;73.40;100530.88;5090413;28;20631;-60
2024/02/17 02:20:51;;;;;;;21.33;14.00;;;;;;;7.90;73.32;100520.59;5090134;28;20284;-60
2024/02/17 02:23:19;;;;;;;18.10;12.70;;;;;;;7.90;73.37;100523.16;5093405;28;20204;-60
2024/02/17 02:25:53;;;;;;;18.90;12.90;;;;;;;7.91;73.81;100522.31;5093372;28;20703;-59
2024/02/17 02:28:21;;;;;;;19.80;13.20;;;;;;;7.90;73.84;100512.91;5091346;28;20296;-64
2024/02/17 02:30:50;;;;;;;18.47;12.90;;;;;;;7.90;73.77;100518.03;5101056;28;20254;-60
2024/02/17 02:33:18;;;;;;;21.97;14.07;;;;;;;7.89;73.20;100516.31;5081680;28;20687;-61
2024/02/17 02:35:46;;;;;;;20.47;13.67;;;;;;;7.91;73.83;100512.06;5087019;28;20212;-60
2024/02/17 02:38:14;;;;;;;21.00;12.87;;;;;;;7.93;74.42;100518.91;5089103;28;20197;-61
2024/02/17 02:40:42;;;;;;;18.60;13.17;;;;;;;7.96;74.45;100510.41;5091975;28;20262;-61
2024/02/17 02:43:12;;;;;;;20.30;13.20;;;;;;;7.98;74.28;100514.66;5093202;28;20235;-62
2024/02/17 02:45:40;;;;;;;22.33;13.07;;;;;;;8.02;73.31;100509.56;5093186;28;20641;-60
2024/02/17 02:48:08;;;;;;;21.10;12.53;;;;;;;8.03;73.32;100504.44;5093521;28;20633;-62
2024/02/17 02:50:36;;;;;;;17.93;12.80;;;;;;;8.05;73.50;100509.56;5093502;28;20288;-60
2024/02/17 02:53:06;;;;;;;19.93;13.30;;;;;;;8.07;73.10;100511.31;5084217;28;20254;-61
2024/02/17 02:55:34;;;;;;;19.40;12.33;;;;;;;8.06;73.71;100501.88;5090435;28;20660;-64
2024/02/17 02:58:03;;;;;;;19.00;12.67;;;;;;;8.09;73.88;100504.47;5089694;28;20262;-64
2024/02/17 03:00:32;;;;;;;17.40;12.93;;;;;;;8.10;74.19;100503.63;5094547;28;20196;-61
2024/02/17 03:03:00;;;;;;;18.03;12.40;;;;;;;8.07;73.57;100503.63;5092549;28;20288;-61
2024/02/17 03:05:28;;;;;;;21.23;13.40;;;;;;;8.09;74.37;100501.91;5092652;28;20418;-61
2024/02/17 03:07:56;;;;;;;19.10;12.83;;;;;;;8.07;73.18;100503.63;5091532;28;20708;-61
2024/02/17 03:10:24;;;;;;;22.70;13.40;;;;;;;8.09;nan;100506.19;5083596;28;20653;-61
2024/02/17 03:12:52;;;;;;;19.43;12.70;;;;;;;8.09;74.02;100503.63;5087214;28;20236;-63
2024/02/17 03:15:21;;;;;;;23.27;12.83;;;;;;;8.06;74.30;100501.03;5089087;28;20201;-62
2024/02/17 03:17:53;;;;;;;21.00;13.37;;;;;;;8.05;74.34;100513.00;5093826;28;20295;-60
2024/02/17 03:20:21;;;;;;;18.57;12.23;;;;;;;8.02;74.42;100510.41;5087750;28;20656;-61
2024/02/17 03:22:49;;;;;;;18.93;12.33;;;;;;;8.02;74.23;100510.41;5091296;28;20196;-61
2024/02/17 03:25:17;;;;;;;17.27;12.17;;;;;;;8.03;74.94;100511.25;5092528;28;20758;-60
2024/02/17 03:27:45;;;;;;;22.07;12.07;;;;;;;8.00;75.26;100512.13;5092406;28;20560;-60
2024/02/17 03:30:14;;;;;;;21.20;12.50;;;;;;;8.00;75.54;100507.00;5092109;28;20200;-60
2024/02/17 03:32:42;;;;;;;17.37;11.83;;;;;;;8.00;75.47;100507.00;5088358;28;20227;-60
2024/02/17 03:35:11;;;;;;;21.60;12.90;;;;;;;7.99;75.91;100511.28;5091076;28;20575;-61
2024/02/17 03:37:39;;;;;;;19.63;12.20;;;;;;;8.01;75.71;100516.41;5085700;28;20205;-60
2024/02/17 03:40:10;;;;;;;19.03;11.53;;;;;;;8.04;75.61;100513.00;5090501;28;20200;-60
2024/02/17 03:42:38;;;;;;;19.07;11.50;;;;;;;8.04;75.51;100508.72;5087442;28;20656;-60
2024/02/17 03:45:06;;;;;;;19.20;11.33;;;;;;;8.06;76.30;100511.28;5091638;28;20205;-61
2024/02/17 03:47:34;;;;;;;18.33;11.47;;;;;;;8.07;75.66;100508.75;5083360;28;20214;-63
2024/02/17 03:50:03;;;;;;;23.57;12.83;;;;;;;8.08;76.00;100520.72;5090393;28;20554;-60
2024/02/17 03:52:33;;;;;;;18.63;11.20;;;;;;;8.08;76.98;100515.59;5082625;28;20201;-61
2024/02/17 03:55:01;;;;;;;16.57;10.90;;;;;;;8.09;77.41;100521.56;5090393;28;20246;-62
2024/02/17 03:57:29;;;;;;;18.90;12.47;;;;;;;8.07;77.52;100520.72;5094492;28;20216;-61
2024/02/17 03:59:57;;;;;;;19.20;11.53;;;;;;;8.08;77.32;100523.28;5093982;28;20292;-61
2024/02/17 04:02:25;;;;;;;17.47;11.27;;;;;;;8.11;77.59;100518.19;5091193;28;20200;-60
2024/02/17 04:04:53;;;;;;;17.07;11.97;;;;;;;8.12;78.43;100525.03;5091732;28;20207;-61
2024/02/17 04:07:21;;;;;;;18.73;11.77;;;;;;;8.13;77.69;100524.16;5091567;28;20753;-61
2024/02/17 04:09:51;;;;;;;17.93;10.57;;;;;;;8.14;78.87;100519.91;5089566;28;20209;-60
2024/02/17 04:12:19;;;;;;;16.33;11.23;;;;;;;8.17;78.05;100522.47;5091120;28;20236;-61
2024/02/17 04:14:47;;;;;;;15.20;10.80;;;;;;;8.19;78.30;100519.06;5083801;28;20249;-61
2024/02/17 04:17:15;;;;;;;16.00;10.70;;;;;;;8.20;78.93;100520.78;5091601;28;20794;-62
2024/02/17 04:19:44;;;;;;;14.90;10.13;;;;;;;8.20;79.21;100520.78;5084492;28;20211;-61
2024/02/17 04:22:12;;;;;;;14.00;10.43;;;;;;;8.24;78.91;100527.66;5091242;28;20676;-60
2024/02/17 04:24:40;;;;;;;17.73;10.40;;;;;;;8.24;79.04;100521.66;5091766;28;20205;-64
2024/02/17 04:27:09;;;;;;;15.97;10.23;;;;;;;8.29;79.25;100524.28;5078906;28;20301;-61
2024/02/17 04:29:37;;;;;;;14.43;10.87;;;;;;;8.33;79.16;100529.44;5071352;28;20298;-60
2024/02/17 04:32:06;;;;;;;15.73;10.87;;;;;;;8.35;78.80;100526.84;5093937;28;20641;-60
2024/02/17 04:34:34;;;;;;;16.73;10.70;;;;;;;8.38;79.04;100524.34;5089733;28;20212;-64
2024/02/17 04:37:03;;;;;;;15.60;10.67;;;;;;;8.39;79.55;100528.63;5091238;28;20570;-62
2024/02/17 04:39:31;;;;;;;15.70;10.30;;;;;;;8.42;78.92;100524.34;5091617;28;20220;-61
2024/02/17 04:41:59;;;;;;;16.17;10.53;;;;;;;8.47;79.15;100526.97;5091110;28;20835;-61
2024/02/17 04:44:28;;;;;;;15.37;10.27;;;;;;;8.49;79.54;100529.53;5091662;28;20680;-63
2024/02/17 04:46:56;;;;;;;16.03;10.73;;;;;;;8.50;79.87;100531.25;5080997;28;20250;-62
2024/02/17 04:49:25;;;;;;;16.60;9.97;;;;;;;8.45;79.41;100516.69;5092664;28;20201;-60
2024/02/17 04:51:53;;;;;;;14.80;10.07;;;;;;;8.52;79.26;100532.97;5088071;28;20196;-60
2024/02/17 04:54:21;;;;;;;13.53;10.10;;;;;;;8.55;79.71;100534.72;5088893;28;20270;-60
2024/02/17 04:56:50;;;;;;;16.33;10.53;;;;;;;8.57;79.22;100538.97;5090650;28;20211;-60
2024/02/17 04:59:17;;;;;;;15.70;9.93;;;;;;;8.59;79.86;100541.56;5091072;28;20208;-61
2024/02/17 05:01:47;;;;;;;16.00;10.73;;;;;;;8.60;79.79;100541.56;5087427;28;20247;-60
2024/02/17 05:04:15;;;;;;;15.97;10.30;;;;;;;8.63;80.04;100541.59;5091022;28;20303;-61
2024/02/17 05:06:47;;;;;;;13.43;10.03;;;;;;;8.65;79.73;100541.59;5089939;28;20213;-61
2024/02/17 05:09:15;;;;;;;14.07;10.27;;;;;;;8.67;80.13;100540.75;5080224;28;20731;-60
2024/02/17 05:11:44;;;;;;;16.27;10.40;;;;;;;8.69;80.17;100544.19;5084657;28;20252;-61
2024/02/17 05:14:15;;;;;;;16.30;10.93;;;;;;;8.73;80.41;100542.50;5090542;28;20197;-60
2024/02/17 05:16:44;;;;;;;15.73;10.23;;;;;;;8.75;80.69;100545.91;5084684;28;20192;-60
2024/02/17 05:19:15;;;;;;;15.27;9.93;;;;;;;8.78;80.91;100551.06;5090518;28;20204;-61
2024/02/17 05:21:44;;;;;;;13.43;9.77;;;;;;;8.81;81.16;100550.22;5083165;28;20196;-60
2024/02/17 05:24:12;;;;;;;14.90;10.33;;;;;;;8.87;81.84;100550.22;5094712;28;20201;-60
2024/02/17 05:26:41;;;;;;;12.70;10.20;;;;;;;8.92;82.44;100551.97;5088375;28;20208;-61
2024/02/17 05:29:09;;;;;;;15.33;9.93;;;;;;;8.97;82.42;100557.13;5082299;28;20227;-64
2024/02/17 05:31:37;;;;;;;16.60;10.30;;;;;;;9.01;83.40;100563.13;5080640;28;20192;-63
2024/02/17 05:34:05;;;;;;;14.33;10.03;;;;;;;9.02;84.33;100557.13;5086842;28;20274;-65
2024/02/17 05:36:35;;;;;;;14.00;9.90;;;;;;;9.02;84.33;100570.88;5089288;28;20189;-63
2024/02/17 05:39:03;;;;;;;13.40;9.70;;;;;;;9.02;85.44;100563.16;5088276;28;20205;-64
2024/02/17 05:41:31;;;;;;;14.53;9.93;;;;;;;9.00;86.49;100575.13;5089700;28;20281;-63
2024/02/17 05:43:59;;;;;;;13.97;9.67;;;;;;;8.96;87.42;100575.97;5085208;28;20208;-62
2024/02/17 05:46:27;;;;;;;16.67;10.57;;;;;;;8.91;87.74;100572.50;5090443;28;20220;-64
2024/02/17 05:48:55;;;;;;;14.30;10.40;;;;;;;8.91;89.41;100582.78;5090262;28;20207;-64
2024/02/17 05:51:24;;;;;;;16.43;12.17;;;;;;;8.89;89.82;100579.38;5081430;28;20205;-63
2024/02/17 05:53:53;;;;;;;20.37;12.03;;;;;;;8.86;91.18;100584.50;5086696;28;20208;-64
2024/02/17 05:56:21;;;;;;;15.93;11.50;;;;;;;8.81;92.23;100578.50;5093845;28;20235;-64
2024/02/17 05:58:49;;;;;;;16.87;12.00;;;;;;;8.78;93.27;100578.47;5084585;28;20258;-64
2024/02/17 06:01:17;;;;;;;15.20;11.80;;;;;;;8.77;93.97;100574.19;5081052;28;20204;-66
2024/02/17 06:03:45;;;;;;;16.77;11.30;;;;;;;8.76;94.01;100582.72;5092654;28;20259;-64
2024/02/17 06:06:13;;;;;;;15.97;12.20;;;;;;;8.75;94.02;100583.59;5094942;28;20292;-63
2024/02/17 06:08:42;;;;;;;18.23;12.50;;;;;;;8.76;94.83;100587.88;5093237;28;20209;-66
2024/02/17 06:11:12;;;;;;;19.60;12.77;;;;;;;8.71;96.30;100586.16;5093225;28;20637;-62
2024/02/17 06:13:41;;;;;;;16.77;12.13;;;;;;;8.71;96.27;100587.84;5090474;28;20775;-64
2024/02/17 06:16:11;;;;;;;15.80;12.70;;;;;;;8.69;97.66;100587.00;5086084;28;20673;-62
2024/02/17 06:21:25;;;;;;;18.67;13.37;;;;;;;8.63;98.81;100603.25;5093824;28;20204;-64
2024/02/17 06:23:55;;;;;;;18.40;13.60;;;;;;;8.61;99.53;100604.94;5090333;28;20208;-63
2024/02/17 06:26:26;;;;;;;19.57;13.83;;;;;;;8.59;100.00;100608.34;5093919;28;20582;-64
2024/02/17 06:28:56;;;;;;;19.50;13.73;;;;;;;8.57;100.00;100597.19;5093081;28;20224;-64
2024/02/17 06:31:24;;;;;;;17.90;13.67;;;;;;;8.55;100.00;100612.63;5087433;28;20205;-65
2024/02/17 06:33:53;;;;;;;19.80;14.13;;;;;;;8.56;100.00;100619.47;5089792;28;20207;-64
2024/02/17 06:36:21;;;;;;;18.33;13.97;;;;;;;8.56;100.00;100614.31;5092445;28;20193;-65
2024/02/17 06:38:51;;;;;;;17.27;13.73;;;;;;;8.58;100.00;100624.59;5091588;28;20193;-64
2024/02/17 06:41:19;;;;;;;18.50;14.17;;;;;;;8.56;100.00;100616.91;5092080;28;20212;-65
2024/02/17 06:43:50;;;;;;;22.00;14.83;;;;;;;8.59;100.00;100610.94;5098095;28;20199;-64
2024/02/17 06:46:19;;;;;;;17.73;14.00;;;;;;;8.60;100.00;100621.19;5090276;28;20722;-65
2024/02/17 06:48:49;;;;;;;18.13;14.17;;;;;;;8.63;100.00;100623.78;5093158;28;20270;-65
2024/02/17 06:51:20;;;;;;;17.63;13.80;;;;;;;8.64;100.00;100625.50;5093797;28;20205;-65
2024/02/17 06:53:49;;;;;;;18.70;13.90;;;;;;;8.64;100.00;100630.63;5093568;28;20705;-66
2024/02/17 06:56:17;;;;;;;18.73;14.10;;;;;;;8.66;100.00;100628.94;5093151;28;20212;-66
2024/02/17 06:58:45;;;;;;;17.57;13.93;;;;;;;8.68;100.00;100627.22;5085156;28;20208;-65
2024/02/17 07:01:15;;;;;;;23.97;15.47;;;;;;;8.70;100.00;100640.09;5092867;28;20236;-65
2024/02/17 07:03:43;;;;;;;20.13;15.33;;;;;;;8.68;100.00;100626.38;5075836;28;20204;-61
2024/02/17 07:06:16;;;;;;;19.67;15.50;;;;;;;8.68;100.00;100637.50;5092547;28;20208;-62
2024/02/17 07:08:46;;;;;;;20.97;15.10;;;;;;;8.70;100.00;100640.09;5092778;28;20213;-64
2024/02/17 07:11:15;;;;;;;20.67;15.77;;;;;;;8.70;100.00;100640.09;5093175;28;20782;-64
2024/02/17 07:13:43;;;;;;;21.53;16.20;;;;;;;8.70;100.00;100640.97;5083091;28;20364;-64
2024/02/17 07:16:11;;;;;;;22.87;16.43;;;;;;;8.70;100.00;100640.97;5091243;28;20710;-63
2024/02/17 07:18:43;;;;;;;20.20;15.27;;;;;;;8.73;100.00;100645.25;5088334;28;20205;-65
2024/02/17 07:21:12;;;;;;;21.37;15.87;;;;;;;8.76;100.00;100654.66;5087239;28;20830;-64
2024/02/17 07:23:41;;;;;;;21.67;17.37;;;;;;;8.77;100.00;100659.00;5089899;28;20226;-66
2024/02/17 07:26:09;;;;;;;20.73;15.77;;;;;;;8.77;100.00;100661.56;5092203;28;20212;-66
2024/02/17 07:28:38;;;;;;;21.70;18.17;;;;;;;8.81;100.00;100658.16;5092527;28;20620;-63
2024/02/17 07:31:06;;;;;;;20.67;16.20;;;;;;;8.81;100.00;100664.16;5086294;28;20213;-65
2024/02/17 07:33:34;;;;;;;22.13;17.53;;;;;;;8.82;100.00;100660.72;5089225;28;20236;-62
2024/02/17 07:36:05;;;;;;;24.43;17.70;;;;;;;8.85;100.00;100665.88;5089600;28;20250;-62
2024/02/17 07:38:33;;;;;;;21.83;16.10;;;;;;;8.87;100.00;100663.31;5091089;28;20672;-61
2024/02/17 07:41:01;;;;;;;23.10;17.17;;;;;;;8.89;100.00;100664.19;5082653;28;20201;-63
2024/02/17 07:43:29;;;;;;;21.73;16.80;;;;;;;8.92;100.00;100667.63;5090159;28;20245;-63
2024/02/17 07:45:57;;;;;;;20.33;15.97;;;;;;;8.94;100.00;100665.91;5090351;28;20624;-61
2024/02/17 07:48:25;;;;;;;22.30;16.47;;;;;;;8.97;100.00;100659.94;5092747;28;20688;-63
2024/02/17 07:50:54;;;;;;;18.13;15.50;;;;;;;9.00;100.00;100675.38;5092521;28;20222;-67
2024/02/17 07:53:23;;;;;;;23.87;17.60;;;;;;;9.02;100.00;100670.22;5092597;28;20681;-63
2024/02/17 07:55:51;;;;;;;22.57;17.30;;;;;;;9.04;100.00;100677.09;5091553;28;20901;-61
2024/02/17 07:58:19;;;;;;;20.77;15.80;;;;;;;9.05;100.00;100675.38;5082631;28;20197;-64
2024/02/17 08:00:48;;;;;;;22.10;16.80;;;;;;;9.07;100.00;100674.56;5086103;28;20209;-62
2024/02/17 08:03:17;;;;;;;21.27;16.77;;;;;;;9.09;100.00;100683.13;5090949;28;20578;-63
2024/02/17 08:05:45;;;;;;;24.33;18.23;;;;;;;9.10;100.00;100687.44;5074986;28;20569;-63
2024/02/17 08:08:13;;;;;;;20.37;16.73;;;;;;;9.10;100.00;100687.44;5088930;28;20227;-60
2024/02/17 08:10:43;;;;;;;26.73;21.03;;;;;;;9.13;100.00;100692.59;5083732;28;20769;-62
2024/02/17 08:13:11;;;;;;;24.00;17.73;;;;;;;9.15;100.00;100700.28;5084516;28;20595;-63
2024/02/17 08:15:39;;;;;;;21.37;17.07;;;;;;;9.14;100.00;100699.44;5092960;28;20657;-63
2024/02/17 08:18:08;;;;;;;22.10;18.20;;;;;;;9.16;100.00;100704.56;5082767;28;20193;-64
2024/02/17 08:20:36;;;;;;;25.50;18.13;;;;;;;9.16;100.00;100697.72;5088153;28;20201;-63
2024/02/17 08:23:04;;;;;;;21.70;17.10;;;;;;;9.16;100.00;100707.16;5092294;28;20208;-62
2024/02/17 08:25:32;;;;;;;25.30;17.50;;;;;;;9.17;100.00;100711.47;5091923;28;20249;-64
2024/02/17 08:28:01;;;;;;;21.00;18.03;;;;;;;9.21;100.00;100704.63;5082513;28;20224;-64
2024/02/17 08:30:32;;;;;;;23.70;19.13;;;;;;;9.21;100.00;100707.19;5089548;28;20628;-64
2024/02/17 08:33:00;;;;;;;23.40;17.27;;;;;;;9.23;100.00;100713.19;5092181;28;20188;-63
2024/02/17 08:35:28;;;;;;;23.00;17.67;;;;;;;9.26;100.00;100715.78;5087611;28;20212;-63
2024/02/17 08:37:56;;;;;;;27.27;17.77;;;;;;;9.29;100.00;100721.78;5096333;28;20294;-63
2024/02/17 08:40:25;;;;;;;23.80;17.63;;;;;;;9.34;100.00;100724.38;5091733;28;20204;-64
2024/02/17 08:42:53;;;;;;;21.93;17.23;;;;;;;9.34;100.00;100726.94;5090671;28;20554;-64
2024/02/17 08:45:22;;;;;;;21.03;16.53;;;;;;;9.35;100.00;100729.53;5078493;28;20591;-63
2024/02/17 08:47:50;;;;;;;23.90;18.27;;;;;;;9.37;100.00;100732.97;5085130;28;20658;-67
2024/02/17 08:50:20;;;;;;;27.83;17.33;;;;;;;9.38;100.00;100731.25;5091257;28;20564;-65
2024/02/17 08:52:48;;;;;;;22.27;18.37;;;;;;;9.35;100.00;100724.41;5084708;28;20243;-66
2024/02/17 08:55:16;;;;;;;21.23;16.63;;;;;;;9.36;100.00;100730.41;5084217;28;20652;-65
2024/02/17 08:57:45;;;;;;;22.33;18.30;;;;;;;9.38;100.00;100737.25;5090716;28;20200;-65
2024/02/17 09:00:14;;;;;;;26.00;19.97;;;;;;;9.39;100.00;100733.00;5091341;28;20207;-63
2024/02/17 09:02:44;;;;;;;22.03;17.87;;;;;;;9.43;100.00;100727.00;5089036;28;20200;-64
2024/02/17 09:05:13;;;;;;;21.97;17.10;;;;;;;9.45;100.00;100745.84;5087784;28;20223;-68
2024/02/17 09:07:41;;;;;;;21.40;16.43;;;;;;;9.48;100.00;100739.88;5090288;28;20204;-64
2024/02/17 09:10:15;;;;;;;20.63;17.13;;;;;;;9.51;100.00;100739.88;5089344;28;20224;-64
2024/02/17 09:12:43;;;;;;;21.50;16.90;;;;;;;9.49;100.00;100737.28;5088850;28;20236;-61
2024/02/17 09:15:12;;;;;;;19.90;16.77;;;;;;;9.50;100.00;100739.03;5088309;28;20309;-65
2024/02/17 09:17:40;;;;;;;25.20;20.50;;;;;;;9.48;100.00;100745.03;5100088;28;20205;-65
2024/02/17 09:20:12;;;;;;;19.60;15.07;;;;;;;9.54;100.00;100745.91;5089289;28;20243;-64
2024/02/17 09:22:40;;;;;;;20.17;14.33;;;;;;;9.51;100.00;100743.31;5090426;28;20243;-64
2024/02/17 09:25:08;;;;;;;17.47;14.10;;;;;;;9.52;100.00;100763.03;5079864;28;20258;-64
2024/02/17 09:27:36;;;;;;;16.87;14.30;;;;;;;9.53;100.00;100758.75;5088223;28;20205;-63
2024/02/17 09:30:06;;;;;;;21.07;15.87;;;;;;;9.54;100.00;100758.78;5098597;28;20219;-63
2024/02/17 09:32:34;;;;;;;19.30;14.80;;;;;;;9.53;100.00;100764.75;5095203;28;20208;-64
2024/02/17 09:35:03;;;;;;;18.17;15.03;;;;;;;9.55;100.00;100767.34;5083581;28;20200;-64
2024/02/17 09:37:32;;;;;;;20.37;15.40;;;;;;;9.54;100.00;100766.50;5091751;28;20208;-63
2024/02/17 09:40:01;;;;;;;19.23;15.57;;;;;;;9.55;100.00;100765.63;5094389;28;20662;-65
2024/02/17 09:42:29;;;;;;;17.97;14.33;;;;;;;9.57;100.00;100771.66;5088616;28;20224;-65
2024/02/17 09:44:57;;;;;;;16.70;14.33;;;;;;;9.60;100.00;100775.94;5091367;28;20226;-63
2024/02/17 09:47:26;;;;;;;18.47;13.70;;;;;;;9.61;100.00;100783.69;5083366;28;20274;-65
2024/02/17 09:49:55;;;;;;;18.40;14.27;;;;;;;9.62;100.00;100774.25;5094200;28;20224;-65
2024/02/17 09:52:24;;;;;;;17.73;14.87;;;;;;;9.64;100.00;100778.50;5095939;28;20213;-64
2024/02/17 09:54:56;;;;;;;23.47;18.00;;;;;;;9.65;100.00;100782.84;5092314;28;20664;-63
2024/02/17 09:57:24;;;;;;;24.47;18.33;;;;;;;9.66;100.00;100787.13;5095483;28;20310;-64
2024/02/17 10:00:05;;;;;;;19.00;15.87;;;;;;;9.67;100.00;100793.97;5088400;28;20200;-66
2024/02/17 10:02:34;;;;;;;19.93;15.90;;;;;;;9.67;100.00;100798.25;5091271;28;20216;-63
2024/02/17 10:05:03;;;;;;;18.13;15.87;;;;;;;9.66;100.00;100787.13;5084031;28;20509;-65
2024/02/17 10:07:31;;;;;;;25.13;18.50;;;;;;;9.68;100.00;100787.09;5090237;28;20520;-63
2024/02/17 10:10:04;;;;;;;20.83;16.90;;;;;;;9.70;100.00;100792.28;5093785;28;20213;-64
2024/02/17 10:12:32;;;;;;;22.33;16.80;;;;;;;9.73;100.00;100789.72;5093911;28;20704;-65
2024/02/17 10:15:01;;;;;;;22.03;16.33;;;;;;;9.74;100.00;100796.56;5093436;28;20211;-67
2024/02/17 10:17:29;;;;;;;22.33;17.60;;;;;;;9.75;100.00;100782.84;5094406;28;20247;-64
2024/02/17 10:19:57;;;;;;;22.80;17.43;;;;;;;9.74;100.00;100791.44;5095087;28;20201;-64
2024/02/17 10:22:26;;;;;;;22.37;17.90;;;;;;;9.75;100.00;100796.56;5081453;28;20250;-62
2024/02/17 10:25:01;;;;;;;22.07;17.23;;;;;;;9.75;100.00;100793.16;5082451;28;20204;-63
2024/02/17 10:27:29;;;;;;;20.50;17.20;;;;;;;9.75;100.00;100791.44;5084727;28;20208;-64
2024/02/17 10:30:07;;;;;;;21.57;17.30;;;;;;;9.75;100.00;100801.72;5086502;28;20216;-63
2024/02/17 10:32:35;;;;;;;21.70;17.77;;;;;;;9.77;100.00;100799.16;5082743;28;20200;-62
2024/02/17 10:35:06;;;;;;;23.10;18.70;;;;;;;9.77;100.00;100788.88;5081755;28;20741;-65
2024/02/17 10:37:38;;;;;;;24.23;18.10;;;;;;;9.79;100.00;100807.75;5084552;28;20208;-64
2024/02/17 10:40:09;;;;;;;23.00;18.40;;;;;;;9.79;100.00;100806.03;5085313;28;20263;-65
2024/02/17 10:42:38;;;;;;;23.97;18.60;;;;;;;9.81;100.00;100803.47;5083429;28;20612;-64
2024/02/17 10:45:07;;;;;;;24.67;18.70;;;;;;;9.81;100.00;100796.59;5087659;28;20221;-66
2024/02/17 10:47:37;;;;;;;23.60;18.63;;;;;;;9.84;100.00;100806.06;5100135;28;20291;-62
2024/02/17 10:50:12;;;;;;;23.87;18.43;;;;;;;9.87;100.00;100806.09;5086911;28;20236;-64
2024/02/17 10:52:46;;;;;;;23.70;17.57;;;;;;;9.88;100.00;100802.66;5086896;28;20220;-64
2024/02/17 10:55:16;;;;;;;27.10;19.10;;;;;;;9.87;100.00;100796.63;5092816;28;20687;-65
2024/02/17 10:57:53;;;;;;;33.00;23.43;;;;;;;9.90;100.00;100800.91;5087100;28;20205;-64
2024/02/17 11:00:23;;;;;;;19.87;15.83;;;;;;;9.89;100.00;100800.06;5088665;28;20212;-66
2024/02/17 11:03:01;;;;;;;19.87;16.47;;;;;;;9.93;100.00;100796.63;5090126;28;20270;-65
2024/02/17 11:05:30;;;;;;;21.67;16.07;;;;;;;9.95;100.00;100796.66;5088808;28;20608;-67
2024/02/17 11:07:59;;;;;;;18.37;15.47;;;;;;;10.02;100.00;100808.69;5092280;28;20201;-67
2024/02/17 11:10:31;;;;;;;19.00;16.33;;;;;;;10.08;100.00;100793.25;5086860;28;20209;-66
2024/02/17 11:12:59;;;;;;;18.67;14.90;;;;;;;10.16;100.00;100794.16;5092181;28;20681;-68
2024/02/17 11:15:28;;;;;;;18.23;14.43;;;;;;;10.27;100.00;100795.88;5093422;28;20205;-67
2024/02/17 11:18:02;;;;;;;16.57;13.80;;;;;;;10.34;100.00;100797.63;5093468;28;20288;-66
2024/02/17 11:20:30;;;;;;;17.40;13.93;;;;;;;10.40;100.00;100795.91;5090567;28;20238;-62
2024/02/17 11:23:00;;;;;;;17.97;13.80;;;;;;;10.49;100.00;100797.63;5084095;28;20196;-66
2024/02/17 11:25:33;;;;;;;14.93;12.20;;;;;;;10.55;100.00;100799.38;5090057;28;20201;-65